createdAt,value
2022-10-18T04:45:59.644Z,14.68
2022-10-18T04:47:00.631Z,14.65
2022-10-18T04:48:00.611Z,14.65
2022-10-18T04:49:00.604Z,14.65
2022-10-18T04:50:00.609Z,14.64
2022-10-18T04:51:00.585Z,14.68
2022-10-18T04:52:00.576Z,14.65
2022-10-18T04:53:00.585Z,14.69
2022-10-18T04:54:00.556Z,14.69
2022-10-18T04:55:00.554Z,14.72
2022-10-18T04:56:00.524Z,14.70
2022-10-18T04:57:00.519Z,14.72
2022-10-18T04:58:00.502Z,14.72
2022-10-18T04:59:00.500Z,14.73
2022-10-18T05:00:00.497Z,14.72
2022-10-18T05:01:00.488Z,14.72
2022-10-18T05:02:00.590Z,14.68
2022-10-18T05:03:00.453Z,14.69
2022-10-18T05:04:00.440Z,14.69
2022-10-18T05:05:00.446Z,14.64
2022-10-18T05:06:03.189Z,14.64
2022-10-18T05:07:00.416Z,14.62
2022-10-18T05:08:00.397Z,14.60
2022-10-18T05:09:00.398Z,14.58
2022-10-18T05:10:00.376Z,14.57
2022-10-18T05:11:00.438Z,14.57
2022-10-18T05:12:00.352Z,14.57
2022-10-18T05:13:00.348Z,14.55
2022-10-18T05:14:00.350Z,14.55
2022-10-18T05:15:00.327Z,14.55
2022-10-18T05:16:00.364Z,14.54
2022-10-18T05:17:00.302Z,14.51
2022-10-18T05:18:00.283Z,14.52
2022-10-18T05:19:00.276Z,14.54
2022-10-18T05:20:00.390Z,14.52
2022-10-18T05:21:00.260Z,14.47
2022-10-18T05:22:00.243Z,14.54
2022-10-18T05:23:00.242Z,14.57
2022-10-18T05:24:00.232Z,14.54
2022-10-18T05:25:00.230Z,14.57
2022-10-18T05:26:00.203Z,14.58
2022-10-18T05:27:00.203Z,14.61
2022-10-18T05:28:06.265Z,14.55
2022-10-18T05:29:00.337Z,14.55
2022-10-18T05:30:02.922Z,14.57
2022-10-18T05:31:00.157Z,14.54
2022-10-18T05:32:00.141Z,14.55
2022-10-18T05:33:00.129Z,14.58
2022-10-18T05:34:00.134Z,14.57
2022-10-18T05:35:00.118Z,14.61
2022-10-18T05:36:00.125Z,14.61
2022-10-18T05:37:00.094Z,14.58
2022-10-18T05:38:00.072Z,14.60
2022-10-18T05:39:02.552Z,14.61
2022-10-18T05:40:00.053Z,14.60
2022-10-18T05:41:00.045Z,14.62
2022-10-18T05:42:00.028Z,14.61
2022-10-18T05:43:00.027Z,14.65
2022-10-18T05:44:00.023Z,14.64
2022-10-18T05:45:00.000Z,14.64
2022-10-18T05:46:00.012Z,14.65
2022-10-18T05:47:00.001Z,14.68
2022-10-18T05:47:59.967Z,14.69
2022-10-18T05:48:59.983Z,14.69
2022-10-18T05:49:59.940Z,14.70
2022-10-18T05:50:59.958Z,14.69
2022-10-18T05:51:59.926Z,14.72
2022-10-18T05:53:11.856Z,14.69
2022-10-18T05:53:59.920Z,14.70
2022-10-18T05:54:59.913Z,14.69
2022-10-18T05:55:59.881Z,14.70
2022-10-18T05:56:59.872Z,14.70
2022-10-18T05:57:59.854Z,14.69
2022-10-18T05:58:59.867Z,14.73
2022-10-18T05:59:59.839Z,14.75
2022-10-18T06:00:59.869Z,14.78
2022-10-18T06:01:59.811Z,14.78
2022-10-18T06:03:00.519Z,14.78
2022-10-18T06:03:59.820Z,14.78
2022-10-18T06:04:59.785Z,14.78
2022-10-18T06:05:59.768Z,14.77
2022-10-18T06:06:59.771Z,14.78
2022-10-18T06:07:59.752Z,14.78
2022-10-18T06:08:59.757Z,14.80
2022-10-18T06:09:59.737Z,14.80
2022-10-18T06:10:59.718Z,14.78
2022-10-18T06:11:59.711Z,14.81
2022-10-18T06:12:59.703Z,14.80
2022-10-18T06:13:59.706Z,14.81
2022-10-18T06:14:59.694Z,14.81
2022-10-18T06:15:59.666Z,14.80
2022-10-18T06:16:59.660Z,14.84
2022-10-18T06:17:59.645Z,14.83
2022-10-18T06:18:59.650Z,14.81
2022-10-18T06:19:59.622Z,14.84
2022-10-18T06:20:59.608Z,14.83
2022-10-18T06:21:59.626Z,14.83
2022-10-18T06:22:59.588Z,14.84
2022-10-18T06:23:59.587Z,14.84
2022-10-18T06:24:59.567Z,14.86
2022-10-18T06:25:59.556Z,14.83
2022-10-18T06:26:59.581Z,14.84
2022-10-18T06:27:59.537Z,14.86
2022-10-18T06:28:59.582Z,14.89
2022-10-18T06:29:59.508Z,14.89
2022-10-18T06:30:59.514Z,14.92
2022-10-18T06:31:59.494Z,14.94
2022-10-18T06:32:59.480Z,14.94
2022-10-18T06:33:59.487Z,14.98
2022-10-18T06:34:59.464Z,14.98
2022-10-18T06:35:59.448Z,14.98
2022-10-18T06:36:59.444Z,14.99
2022-10-18T06:37:59.433Z,15.01
2022-10-18T06:38:59.441Z,15.03
2022-10-18T06:39:59.403Z,15.07
2022-10-18T06:40:59.405Z,15.09
2022-10-18T06:41:59.389Z,15.14
2022-10-18T06:43:10.577Z,15.14
2022-10-18T06:43:59.380Z,15.20
2022-10-18T06:44:59.358Z,15.21
2022-10-18T06:45:59.345Z,15.28
2022-10-18T06:46:59.334Z,15.28
2022-10-18T06:47:59.321Z,15.34
2022-10-18T06:48:59.331Z,15.34
2022-10-18T06:49:59.299Z,15.38
2022-10-18T06:50:59.291Z,15.38
2022-10-18T06:51:59.274Z,15.36
2022-10-18T06:52:59.274Z,15.38
2022-10-18T06:54:13.393Z,15.39
2022-10-18T06:54:59.252Z,15.43
2022-10-18T06:55:59.235Z,15.46
2022-10-18T06:56:59.227Z,15.43
2022-10-18T06:57:59.211Z,15.43
2022-10-18T06:59:59.195Z,15.47
2022-10-18T07:00:59.186Z,15.47
2022-10-18T07:01:59.238Z,15.46
2022-10-18T07:02:59.159Z,15.44
2022-10-18T07:03:59.158Z,15.44
2022-10-18T07:04:59.144Z,15.44
2022-10-18T07:05:59.126Z,15.49
2022-10-18T07:06:59.118Z,15.47
2022-10-18T07:07:59.108Z,15.46
2022-10-18T07:08:59.108Z,15.39
2022-10-18T07:09:59.096Z,15.39
2022-10-18T07:10:59.078Z,15.39
2022-10-18T07:11:59.063Z,15.39
2022-10-18T07:13:13.572Z,15.41
2022-10-18T07:13:59.063Z,15.44
2022-10-18T07:14:59.030Z,15.43
2022-10-18T07:15:59.025Z,15.44
2022-10-18T07:16:59.007Z,15.46
2022-10-18T07:17:58.997Z,15.49
2022-10-18T07:18:58.997Z,15.49
2022-10-18T07:19:58.974Z,15.46
2022-10-18T07:20:58.964Z,15.39
2022-10-18T07:21:58.954Z,15.36
2022-10-18T07:22:58.947Z,15.35
2022-10-18T07:23:58.967Z,15.38
2022-10-18T07:24:58.925Z,15.38
2022-10-18T07:25:58.916Z,15.39
2022-10-18T07:26:58.900Z,15.39
2022-10-18T07:27:58.892Z,15.39
2022-10-18T07:28:59.073Z,15.39
2022-10-18T07:29:58.873Z,15.39
2022-10-18T07:31:02.445Z,15.38
2022-10-18T07:31:58.857Z,15.39
2022-10-18T07:32:58.835Z,15.36
2022-10-18T07:33:58.842Z,15.35
2022-10-18T07:34:58.865Z,15.35
2022-10-18T07:35:58.803Z,15.34
2022-10-18T07:36:58.790Z,15.35
2022-10-18T07:37:58.779Z,15.35
2022-10-18T07:38:58.777Z,15.36
2022-10-18T07:39:58.759Z,15.35
2022-10-18T07:40:58.742Z,15.36
2022-10-18T07:41:58.736Z,15.36
2022-10-18T07:43:02.723Z,15.34
2022-10-18T07:43:58.736Z,15.36
2022-10-18T07:44:58.699Z,15.34
2022-10-18T07:45:58.697Z,15.35
2022-10-18T07:46:58.683Z,15.36
2022-10-18T07:47:58.673Z,15.35
2022-10-18T07:48:58.672Z,15.36
2022-10-18T07:49:58.653Z,15.34
2022-10-18T07:50:58.637Z,15.38
2022-10-18T07:51:58.635Z,15.36
2022-10-18T07:52:58.620Z,15.36
2022-10-18T07:53:58.622Z,15.36
2022-10-18T07:54:58.598Z,15.36
2022-10-18T07:55:58.588Z,15.38
2022-10-18T07:56:58.573Z,15.35
2022-10-18T07:57:58.571Z,15.34
2022-10-18T07:58:58.563Z,15.36
2022-10-18T07:59:58.548Z,15.36
2022-10-18T08:00:58.530Z,15.35
2022-10-18T08:01:58.544Z,15.35
2022-10-18T08:02:58.508Z,15.38
2022-10-18T08:04:01.056Z,15.39
2022-10-18T08:04:58.487Z,15.43
2022-10-18T08:05:58.536Z,15.44
2022-10-18T08:06:58.474Z,15.47
2022-10-18T08:07:58.459Z,15.50
2022-10-18T08:08:58.463Z,15.51
2022-10-18T08:09:58.436Z,15.53
2022-10-18T08:10:58.421Z,15.54
2022-10-18T08:11:58.413Z,15.59
2022-10-18T08:12:58.400Z,15.57
2022-10-18T08:13:58.412Z,15.60
2022-10-18T08:14:58.377Z,15.54
2022-10-18T08:15:58.368Z,15.59
2022-10-18T08:16:58.360Z,15.64
2022-10-18T08:17:58.510Z,15.65
2022-10-18T08:18:58.347Z,15.69
2022-10-18T08:20:11.903Z,15.71
2022-10-18T08:20:58.326Z,15.74
2022-10-18T08:21:58.312Z,15.72
2022-10-18T08:23:00.299Z,15.69
2022-10-18T08:23:58.281Z,15.71
2022-10-18T08:24:58.274Z,15.71
2022-10-18T08:25:58.268Z,15.74
2022-10-18T08:26:58.252Z,15.75
2022-10-18T08:27:58.246Z,15.71
2022-10-18T08:29:17.590Z,15.59
2022-10-18T08:29:58.282Z,15.53
2022-10-18T08:30:58.205Z,15.53
2022-10-18T08:31:58.200Z,15.54
2022-10-18T08:32:58.187Z,15.51
2022-10-18T08:33:58.191Z,15.56
2022-10-18T08:34:58.162Z,15.56
2022-10-18T08:35:58.155Z,15.56
2022-10-18T08:36:58.145Z,15.56
2022-10-18T08:37:58.132Z,15.56
2022-10-18T08:38:58.132Z,15.56
2022-10-18T08:39:58.111Z,15.51
2022-10-18T08:40:58.095Z,15.51
2022-10-18T08:41:58.091Z,15.53
2022-10-18T08:42:58.076Z,15.51
2022-10-18T08:43:58.409Z,15.47
2022-10-18T08:44:58.053Z,15.44
2022-10-18T08:45:58.049Z,15.47
2022-10-18T08:46:58.028Z,15.46
2022-10-18T08:47:58.021Z,15.49
2022-10-18T08:48:58.028Z,15.50
2022-10-18T08:49:58.002Z,15.51
2022-10-18T08:50:57.996Z,15.51
2022-10-18T08:51:57.983Z,15.54
2022-10-18T08:52:57.964Z,15.51
2022-10-18T08:53:57.971Z,15.53
2022-10-18T08:54:57.945Z,15.51
2022-10-18T08:55:57.935Z,15.53
2022-10-18T08:56:57.923Z,15.56
2022-10-18T08:57:57.931Z,15.51
2022-10-18T08:58:57.903Z,15.53
2022-10-18T08:59:57.891Z,15.51
2022-10-18T09:00:57.879Z,15.53
2022-10-18T09:01:57.869Z,15.57
2022-10-18T09:02:57.907Z,15.57
2022-10-18T09:03:57.849Z,15.56
2022-10-18T09:04:57.836Z,15.62
2022-10-18T09:05:57.825Z,15.64
2022-10-18T09:06:57.816Z,15.65
2022-10-18T09:07:57.806Z,15.60
2022-10-18T09:08:57.809Z,15.62
2022-10-18T09:09:57.782Z,15.64
2022-10-18T09:12:01.033Z,15.65
2022-10-18T09:12:57.751Z,15.69
2022-10-18T09:13:57.755Z,15.71
2022-10-18T09:14:57.727Z,15.80
2022-10-18T09:15:57.720Z,15.84
2022-10-18T09:16:57.706Z,15.89
2022-10-18T09:17:57.700Z,15.90
2022-10-18T09:18:57.699Z,15.90
2022-10-18T09:19:57.722Z,15.87
2022-10-18T09:20:57.668Z,15.86
2022-10-18T09:21:57.653Z,15.84
2022-10-18T09:22:57.636Z,15.92
2022-10-18T09:23:57.653Z,15.94
2022-10-18T09:24:57.616Z,16.00
2022-10-18T09:25:57.615Z,16.04
2022-10-18T09:26:57.598Z,16.11
2022-10-18T09:27:57.603Z,16.17
2022-10-18T09:28:57.682Z,16.28
2022-10-18T09:29:57.567Z,16.38
2022-10-18T09:30:59.528Z,16.56
2022-10-18T09:31:57.545Z,16.66
2022-10-18T09:32:57.552Z,16.63
2022-10-18T09:33:57.529Z,16.68
2022-10-18T09:34:57.516Z,16.71
2022-10-18T09:35:57.506Z,16.64
2022-10-18T09:36:57.484Z,16.60
2022-10-18T09:37:57.495Z,16.52
2022-10-18T09:39:00.271Z,16.48
2022-10-18T09:39:57.462Z,16.46
2022-10-18T09:40:57.446Z,16.42
2022-10-18T09:41:57.435Z,16.28
2022-10-18T09:42:57.441Z,16.31
2022-10-18T09:43:57.419Z,16.27
2022-10-18T09:44:57.405Z,16.27
2022-10-18T09:45:57.397Z,16.35
2022-10-18T09:46:57.373Z,16.45
2022-10-18T09:47:57.372Z,16.42
2022-10-18T09:48:57.370Z,16.46
2022-10-18T09:49:57.350Z,16.57
2022-10-18T09:50:57.330Z,16.68
2022-10-18T09:51:57.328Z,16.71
2022-10-18T09:52:57.311Z,16.71
2022-10-18T09:53:57.327Z,16.79
2022-10-18T09:54:57.292Z,16.83
2022-10-18T09:55:57.284Z,16.78
2022-10-18T09:56:57.318Z,16.85
2022-10-18T09:57:57.265Z,16.91
2022-10-18T09:58:57.257Z,16.82
2022-10-18T09:59:57.243Z,16.83
2022-10-18T10:00:57.227Z,16.89
2022-10-18T10:01:57.231Z,17.04
2022-10-18T10:02:57.204Z,17.18
2022-10-18T10:03:57.215Z,17.12
2022-10-18T10:04:57.299Z,17.22
2022-10-18T10:05:57.175Z,17.40
2022-10-18T10:06:57.164Z,17.46
2022-10-18T10:07:57.238Z,17.44
2022-10-18T10:08:57.153Z,17.55
2022-10-18T10:09:57.128Z,17.54
2022-10-18T10:10:57.115Z,17.66
2022-10-18T10:11:57.113Z,17.96
2022-10-18T10:12:57.096Z,18.47
2022-10-18T10:13:57.101Z,18.65
2022-10-18T10:14:57.072Z,18.60
2022-10-18T10:15:57.067Z,18.88
2022-10-18T10:16:57.053Z,19.02
2022-10-18T10:17:57.043Z,19.29
2022-10-18T10:18:57.040Z,19.43
2022-10-18T10:19:57.019Z,19.69
2022-10-18T10:20:57.017Z,20.16
2022-10-18T10:21:57.003Z,20.43
2022-10-18T10:22:56.982Z,20.47
2022-10-18T10:23:56.991Z,20.99
2022-10-18T10:24:56.965Z,21.42
2022-10-18T10:25:56.956Z,20.74
2022-10-18T10:26:56.943Z,19.61
2022-10-18T10:27:56.941Z,19.23
2022-10-18T10:28:57.008Z,18.58
2022-10-18T10:29:56.918Z,18.44
2022-10-18T10:30:56.896Z,18.25
2022-10-18T10:31:56.892Z,17.87
2022-10-18T10:32:56.877Z,17.82
2022-10-18T10:33:56.895Z,17.77
2022-10-18T10:34:56.863Z,17.78
2022-10-18T10:35:56.847Z,17.77
2022-10-18T10:36:56.833Z,17.48
2022-10-18T10:37:56.825Z,17.43
2022-10-18T10:38:56.814Z,17.30
2022-10-18T10:40:17.263Z,17.16
2022-10-18T10:40:56.810Z,17.15
2022-10-18T10:41:56.780Z,17.12
2022-10-18T10:43:04.288Z,17.01
2022-10-18T10:43:56.763Z,16.98
2022-10-18T10:44:56.763Z,16.91
2022-10-18T10:45:56.736Z,16.83
2022-10-18T10:46:56.723Z,16.79
2022-10-18T10:47:56.713Z,16.85
2022-10-18T10:49:15.323Z,16.83
2022-10-18T10:49:56.714Z,16.91
2022-10-18T10:50:56.681Z,17.00
2022-10-18T10:52:08.325Z,17.08
2022-10-18T10:52:56.667Z,17.11
2022-10-18T10:53:56.663Z,17.08
2022-10-18T10:55:05.729Z,17.12
2022-10-18T10:55:56.641Z,17.11
2022-10-18T10:56:56.614Z,17.03
2022-10-18T10:57:56.613Z,17.01
2022-10-18T10:58:56.656Z,16.98
2022-10-18T10:59:56.598Z,17.03
2022-10-18T11:00:56.571Z,17.03
2022-10-18T11:01:56.581Z,16.98
2022-10-18T11:03:05.852Z,16.98
2022-10-18T11:03:56.697Z,17.00
2022-10-18T11:04:56.539Z,17.07
2022-10-18T11:05:56.528Z,17.03
2022-10-18T11:06:56.500Z,16.97
2022-10-18T11:07:56.498Z,16.98
2022-10-18T11:08:56.485Z,16.93
2022-10-18T11:09:56.489Z,16.91
2022-10-18T11:10:56.464Z,16.93
2022-10-18T11:11:56.456Z,17.04
2022-10-18T11:12:56.439Z,17.01
2022-10-18T11:14:20.607Z,17.04
2022-10-18T11:14:56.439Z,17.01
2022-10-18T11:15:56.408Z,17.00
2022-10-18T11:16:56.394Z,17.03
2022-10-18T11:17:56.394Z,16.91
2022-10-18T11:18:56.382Z,16.91
2022-10-18T11:19:56.365Z,16.97
2022-10-18T11:20:56.492Z,16.97
2022-10-18T11:21:56.345Z,16.98
2022-10-18T11:22:56.335Z,16.94
2022-10-18T11:23:56.332Z,16.94
2022-10-18T11:24:56.310Z,17.03
2022-10-18T11:25:56.295Z,17.16
2022-10-18T11:26:56.286Z,17.22
2022-10-18T11:27:56.269Z,17.38
2022-10-18T11:28:56.314Z,17.25
2022-10-18T11:29:56.253Z,17.28
2022-10-18T11:30:56.244Z,17.41
2022-10-18T11:31:56.233Z,17.56
2022-10-18T11:32:56.220Z,17.82
2022-10-18T11:34:08.615Z,18.10
2022-10-18T11:34:56.204Z,18.17
2022-10-18T11:36:00.216Z,18.44
2022-10-18T11:37:15.973Z,18.52
2022-10-18T11:37:56.171Z,18.37
2022-10-18T11:38:56.174Z,18.42
2022-10-18T11:39:56.144Z,18.50
2022-10-18T11:40:56.137Z,18.88
2022-10-18T11:41:56.128Z,20.08
2022-10-18T11:42:56.117Z,21.25
2022-10-18T11:44:03.931Z,21.64
2022-10-18T11:44:56.098Z,22.37
2022-10-18T11:45:56.077Z,23.04
2022-10-18T11:46:56.069Z,22.85
2022-10-18T11:47:56.102Z,22.15
2022-10-18T11:48:56.068Z,22.86
2022-10-18T11:49:56.038Z,21.82
2022-10-18T11:50:56.035Z,21.13
2022-10-18T11:52:07.970Z,20.20
2022-10-18T11:52:56.023Z,19.98
2022-10-18T11:53:56.006Z,19.87
2022-10-18T11:54:55.989Z,20.29
2022-10-18T11:55:55.978Z,20.67
2022-10-18T11:56:55.974Z,20.32
2022-10-18T11:57:55.955Z,19.32
2022-10-18T11:58:55.970Z,18.15
2022-10-18T11:59:55.972Z,17.70
2022-10-18T12:00:55.930Z,17.51
2022-10-18T12:01:55.912Z,18.47
2022-10-18T12:02:55.990Z,19.37
2022-10-18T12:03:55.910Z,19.92
2022-10-18T12:05:21.985Z,19.88
2022-10-18T12:05:55.877Z,19.59
2022-10-18T12:06:55.865Z,20.84
2022-10-18T12:07:55.851Z,20.26
2022-10-18T12:08:55.868Z,19.83
2022-10-18T12:09:55.837Z,19.68
2022-10-18T12:11:10.477Z,20.18
2022-10-18T12:11:56.086Z,20.39
2022-10-18T12:12:55.800Z,20.35
2022-10-18T12:13:55.787Z,20.74
2022-10-18T12:14:55.796Z,20.62
2022-10-18T12:15:55.815Z,21.31
2022-10-18T12:17:20.321Z,21.64
2022-10-18T12:17:56.179Z,22.02
2022-10-18T12:18:55.740Z,22.25
2022-10-18T12:19:55.733Z,21.34
2022-10-18T12:20:55.715Z,21.22
2022-10-18T12:21:55.697Z,19.98
2022-10-18T12:22:55.708Z,20.33
2022-10-18T12:23:55.682Z,20.84
2022-10-18T12:24:55.691Z,20.18
2022-10-18T12:25:55.653Z,20.20
2022-10-18T12:26:55.651Z,20.74
2022-10-18T12:27:55.713Z,21.19
2022-10-18T12:28:55.684Z,21.83
2022-10-18T12:29:55.625Z,21.84
2022-10-18T12:30:55.605Z,21.58
2022-10-18T12:31:55.590Z,22.35
2022-10-18T12:33:03.522Z,22.46
2022-10-18T12:33:55.579Z,21.61
2022-10-18T12:34:55.579Z,21.34
2022-10-18T12:35:55.570Z,21.42
2022-10-18T12:36:55.590Z,21.50
2022-10-18T12:37:55.522Z,21.56
2022-10-18T12:38:55.520Z,21.98
2022-10-18T12:40:09.813Z,22.14
2022-10-18T12:40:55.499Z,22.06
2022-10-18T12:41:55.484Z,21.84
2022-10-18T12:42:55.470Z,21.22
2022-10-18T12:43:55.458Z,20.10
2022-10-18T12:44:55.467Z,19.59
2022-10-18T12:45:55.431Z,20.62
2022-10-18T12:46:55.433Z,21.32
2022-10-18T12:47:55.410Z,21.65
2022-10-18T12:48:55.403Z,21.99
2022-10-18T12:49:55.404Z,21.21
2022-10-18T12:50:55.383Z,20.69
2022-10-18T12:51:55.371Z,20.51
2022-10-18T12:52:55.359Z,19.86
2022-10-18T12:53:55.349Z,19.98
2022-10-18T12:54:55.364Z,20.33
2022-10-18T12:55:55.323Z,21.06
2022-10-18T12:56:55.423Z,20.43
2022-10-18T12:57:55.297Z,21.42
2022-10-18T12:58:55.291Z,22.14
2022-10-18T12:59:55.291Z,22.43
2022-10-18T13:00:55.267Z,23.01
2022-10-18T13:01:55.468Z,22.06
2022-10-18T13:02:55.245Z,20.85
2022-10-18T13:03:55.348Z,20.32
2022-10-18T13:04:55.266Z,20.87
2022-10-18T13:05:56.225Z,20.14
2022-10-18T13:06:55.204Z,19.58
2022-10-18T13:07:55.189Z,19.18
2022-10-18T13:08:55.183Z,18.87
2022-10-18T13:09:55.180Z,18.57
2022-10-18T13:10:55.161Z,18.17
2022-10-18T13:11:58.599Z,17.84
2022-10-18T13:12:55.144Z,17.68
2022-10-18T13:13:55.157Z,17.49
2022-10-18T13:15:05.933Z,17.37
2022-10-18T13:15:55.106Z,17.40
2022-10-18T13:16:55.092Z,17.48
2022-10-18T13:17:55.079Z,17.43
2022-10-18T13:18:55.074Z,17.40
2022-10-18T13:20:20.617Z,17.97
2022-10-18T13:20:55.082Z,18.50
2022-10-18T13:21:55.035Z,19.04
2022-10-18T13:22:55.031Z,19.29
2022-10-18T13:23:55.011Z,19.31
2022-10-18T13:24:55.022Z,18.80
2022-10-18T13:25:55.011Z,18.47
2022-10-18T13:27:04.072Z,18.50
2022-10-18T13:27:54.981Z,18.63
2022-10-18T13:28:55.012Z,18.72
2022-10-18T13:29:54.965Z,18.92
2022-10-18T13:30:54.944Z,18.98
2022-10-18T13:31:54.925Z,18.82
2022-10-18T13:32:54.919Z,19.00
2022-10-18T13:33:54.906Z,19.11
2022-10-18T13:34:54.923Z,19.13
2022-10-18T13:35:54.915Z,19.23
2022-10-18T13:36:54.875Z,19.18
2022-10-18T13:37:54.867Z,19.04
2022-10-18T13:38:54.853Z,18.99
2022-10-18T13:39:54.842Z,18.91
2022-10-18T13:40:54.844Z,18.66
2022-10-18T13:41:57.508Z,18.50
2022-10-18T13:42:54.818Z,18.39
2022-10-18T13:43:54.793Z,18.29
2022-10-18T13:44:54.794Z,18.10
2022-10-18T13:45:54.791Z,18.07
2022-10-18T13:46:54.768Z,17.87
2022-10-18T13:47:54.749Z,17.78
2022-10-18T13:48:54.747Z,17.70
2022-10-18T13:49:58.598Z,17.99
2022-10-18T13:50:54.744Z,18.25
2022-10-18T13:51:54.706Z,18.47
2022-10-18T13:52:54.704Z,18.42
2022-10-18T13:53:54.687Z,18.47
2022-10-18T13:54:54.680Z,18.42
2022-10-18T13:55:55.927Z,18.45
2022-10-18T13:56:54.663Z,18.37
2022-10-18T13:57:54.648Z,18.32
2022-10-18T13:59:13.149Z,18.36
2022-10-18T13:59:54.651Z,18.37
2022-10-18T14:00:54.617Z,18.35
2022-10-18T14:01:54.635Z,18.26
2022-10-18T14:02:59.623Z,18.25
2022-10-18T14:03:58.123Z,18.29
2022-10-18T14:05:02.102Z,18.27
2022-10-18T14:05:54.589Z,18.32
2022-10-18T14:06:58.723Z,18.35
2022-10-18T14:07:54.557Z,18.32
2022-10-18T14:08:54.535Z,18.33
2022-10-18T14:09:56.843Z,18.33
2022-10-18T14:11:03.253Z,18.32
2022-10-18T14:11:54.505Z,18.33
2022-10-18T14:12:54.488Z,18.21
2022-10-18T14:13:54.480Z,18.20
2022-10-18T14:14:54.468Z,18.20
2022-10-18T14:15:54.466Z,18.14
2022-10-18T14:16:54.448Z,18.03
2022-10-18T14:17:54.444Z,18.02
2022-10-18T14:18:54.433Z,17.93
2022-10-18T14:19:54.415Z,17.90
2022-10-18T14:21:12.911Z,17.92
2022-10-18T14:21:54.426Z,17.95
2022-10-18T14:22:54.391Z,17.97
2022-10-18T14:23:54.373Z,18.03
2022-10-18T14:24:54.367Z,17.97
2022-10-18T14:25:54.360Z,17.93
2022-10-18T14:26:54.362Z,17.84
2022-10-18T14:27:54.611Z,17.86
2022-10-18T14:29:00.023Z,17.86
2022-10-18T14:29:54.317Z,17.78
2022-10-18T14:30:54.301Z,17.84
2022-10-18T14:31:54.306Z,17.87
2022-10-18T14:32:54.280Z,17.89
2022-10-18T14:33:57.566Z,17.86
2022-10-18T14:35:09.249Z,17.81
2022-10-18T14:35:54.252Z,17.84
2022-10-18T14:36:54.257Z,17.93
2022-10-18T14:37:54.306Z,17.96
2022-10-18T14:38:54.219Z,17.90
2022-10-18T14:39:54.204Z,17.87
2022-10-18T14:40:54.201Z,17.78
2022-10-18T14:41:54.198Z,17.72
2022-10-18T14:42:54.175Z,17.68
2022-10-18T14:43:54.160Z,17.70
2022-10-18T14:44:55.736Z,17.66
2022-10-18T14:45:54.139Z,17.66
2022-10-18T14:46:54.142Z,17.59
2022-10-18T14:47:54.117Z,17.56
2022-10-18T14:48:54.113Z,17.59
2022-10-18T14:49:54.094Z,17.58
2022-10-18T14:50:54.088Z,17.51
2022-10-18T14:51:54.094Z,17.46
2022-10-18T14:52:54.069Z,17.52
2022-10-18T14:53:54.059Z,17.52
2022-10-18T14:54:54.049Z,17.52
2022-10-18T14:55:54.035Z,17.43
2022-10-18T14:56:54.047Z,17.49
2022-10-18T14:57:54.011Z,17.51
2022-10-18T14:58:54.008Z,17.46
2022-10-18T14:59:53.994Z,17.44
2022-10-18T15:00:53.986Z,17.36
2022-10-18T15:01:53.985Z,17.25
2022-10-18T15:02:53.962Z,17.12
2022-10-18T15:03:54.077Z,17.08
2022-10-18T15:04:53.943Z,17.15
2022-10-18T15:05:53.926Z,17.14
2022-10-18T15:06:53.941Z,17.15
2022-10-18T15:07:53.906Z,17.16
2022-10-18T15:08:53.900Z,17.18
2022-10-18T15:09:53.887Z,17.11
2022-10-18T15:10:53.887Z,17.16
2022-10-18T15:11:53.875Z,17.06
2022-10-18T15:13:10.447Z,16.97
2022-10-18T15:13:53.847Z,16.86
2022-10-18T15:14:53.838Z,16.86
2022-10-18T15:15:53.824Z,16.82
2022-10-18T15:16:53.845Z,16.83
2022-10-18T15:17:53.805Z,16.78
2022-10-18T15:18:53.799Z,16.78
2022-10-18T15:19:53.778Z,16.73
2022-10-18T15:20:53.786Z,16.67
2022-10-18T15:22:08.061Z,16.60
2022-10-18T15:22:53.763Z,16.49
2022-10-18T15:23:53.741Z,16.42
2022-10-18T15:24:53.744Z,16.35
2022-10-18T15:25:53.762Z,16.21
2022-10-18T15:26:54.023Z,16.14
2022-10-18T15:27:53.718Z,16.23
2022-10-18T15:28:53.889Z,16.28
2022-10-18T15:29:53.770Z,16.23
2022-10-18T15:30:53.699Z,16.39
2022-10-18T15:31:53.668Z,16.41
2022-10-18T15:32:53.645Z,16.33
2022-10-18T15:33:53.627Z,16.35
2022-10-18T15:34:53.626Z,16.34
2022-10-18T15:35:53.618Z,16.31
2022-10-18T15:36:53.620Z,16.23
2022-10-18T15:37:53.585Z,16.20
2022-10-18T15:38:53.587Z,16.05
2022-10-18T15:39:53.571Z,16.01
2022-10-18T15:40:53.552Z,16.07
2022-10-18T15:41:53.567Z,16.05
2022-10-18T15:42:53.529Z,15.92
2022-10-18T15:43:53.528Z,15.86
2022-10-18T15:44:53.511Z,15.69
2022-10-18T15:45:53.511Z,15.59
2022-10-18T15:46:53.510Z,15.53
2022-10-18T15:47:53.570Z,15.47
2022-10-18T15:48:53.466Z,15.34
2022-10-18T15:49:53.465Z,15.21
2022-10-18T15:50:53.444Z,15.16
2022-10-18T15:51:53.457Z,15.02
2022-10-18T15:52:53.423Z,14.88
2022-10-18T15:53:53.420Z,14.80
2022-10-18T15:54:53.401Z,14.75
2022-10-18T15:55:53.394Z,14.64
2022-10-18T15:56:53.393Z,14.55
2022-10-18T15:57:53.370Z,14.46
2022-10-18T15:58:53.356Z,14.40
2022-10-18T15:59:53.361Z,14.35
2022-10-18T16:00:53.333Z,14.25
2022-10-18T16:01:53.468Z,14.22
2022-10-18T16:02:53.314Z,14.28
2022-10-18T16:04:53.291Z,14.22
2022-10-18T16:05:53.292Z,14.21
2022-10-18T16:06:53.287Z,14.10
2022-10-18T16:07:53.265Z,14.02
2022-10-18T16:08:53.249Z,13.96
2022-10-18T16:09:53.246Z,13.92
2022-10-18T16:10:53.225Z,13.88
2022-10-18T16:11:57.008Z,13.84
2022-10-18T16:13:56.374Z,13.73
2022-10-18T16:14:53.184Z,13.67
2022-10-18T16:15:53.180Z,13.60
2022-10-18T16:16:53.190Z,13.57
2022-10-18T16:17:53.153Z,13.51
2022-10-18T16:18:53.142Z,13.48
2022-10-18T16:19:53.127Z,13.45
2022-10-18T16:20:53.115Z,13.42
2022-10-18T16:21:53.273Z,13.39
2022-10-18T16:22:53.090Z,13.32
2022-10-18T16:23:53.097Z,13.28
2022-10-18T16:24:53.076Z,13.20
2022-10-18T16:25:53.066Z,13.19
2022-10-18T16:26:53.086Z,13.19
2022-10-18T16:27:53.050Z,13.20
2022-10-18T16:28:53.192Z,13.25
2022-10-18T16:29:53.025Z,13.19
2022-10-18T16:30:53.004Z,13.12
2022-10-18T16:31:53.014Z,13.08
2022-10-18T16:32:52.984Z,13.05
2022-10-18T16:33:52.985Z,13.11
2022-10-18T16:34:52.964Z,13.12
2022-10-18T16:35:52.954Z,13.11
2022-10-18T16:36:52.954Z,13.08
2022-10-18T16:37:52.936Z,13.03
2022-10-18T16:38:52.917Z,12.90
2022-10-18T16:39:52.917Z,12.87
2022-10-18T16:40:52.897Z,12.90
2022-10-18T16:41:52.905Z,12.90
2022-10-18T16:42:52.877Z,12.90
2022-10-18T16:43:52.868Z,12.87
2022-10-18T16:44:52.860Z,12.85
2022-10-18T16:45:52.849Z,12.79
2022-10-18T16:46:55.487Z,12.78
2022-10-18T16:47:52.827Z,12.75
2022-10-18T16:48:52.814Z,12.79
2022-10-18T16:49:52.813Z,12.75
2022-10-18T16:50:52.795Z,12.68
2022-10-18T16:51:52.810Z,12.62
2022-10-18T16:52:52.778Z,12.54
2022-10-18T16:53:52.768Z,12.50
2022-10-18T16:54:52.756Z,12.45
2022-10-18T16:55:52.747Z,12.39
2022-10-18T16:56:52.747Z,12.37
2022-10-18T16:57:52.727Z,12.32
2022-10-18T16:58:52.706Z,12.28
2022-10-18T16:59:52.698Z,12.28
2022-10-18T17:00:52.723Z,12.23
2022-10-18T17:01:52.788Z,12.19
2022-10-18T17:02:52.722Z,12.10
2022-10-18T17:03:52.681Z,12.05
2022-10-18T17:04:52.642Z,12.01
2022-10-18T17:05:52.633Z,12.01
2022-10-18T17:06:52.646Z,11.98
2022-10-18T17:07:52.619Z,11.94
2022-10-18T17:08:52.642Z,11.91
2022-10-18T17:09:52.593Z,11.83
2022-10-18T17:10:52.577Z,11.76
2022-10-18T17:11:52.575Z,11.75
2022-10-18T17:12:52.549Z,11.72
2022-10-18T17:13:52.551Z,11.72
2022-10-18T17:14:52.529Z,11.70
2022-10-18T17:15:52.530Z,11.67
2022-10-18T17:16:55.947Z,11.65
2022-10-18T17:17:52.505Z,11.64
2022-10-18T17:18:52.494Z,11.60
2022-10-18T17:19:52.480Z,11.55
2022-10-18T17:20:52.471Z,11.51
2022-10-18T17:21:52.481Z,11.55
2022-10-18T17:22:52.444Z,11.51
2022-10-18T17:23:52.445Z,11.49
2022-10-18T17:24:52.441Z,11.44
2022-10-18T17:26:05.387Z,11.39
2022-10-18T17:26:52.432Z,11.35
2022-10-18T17:27:52.397Z,11.29
2022-10-18T17:28:52.426Z,11.27
2022-10-18T17:29:52.373Z,11.22
2022-10-18T17:30:52.365Z,11.19
2022-10-18T17:31:52.352Z,11.17
2022-10-18T17:32:53.223Z,11.14
2022-10-18T17:33:52.328Z,11.09
2022-10-18T17:34:52.320Z,11.06
2022-10-18T17:35:52.310Z,11.02
2022-10-18T17:36:52.294Z,11.02
2022-10-18T17:37:52.301Z,10.99
2022-10-18T17:38:52.269Z,10.92
2022-10-18T17:39:52.261Z,10.84
2022-10-18T17:40:52.252Z,10.81
2022-10-18T17:41:52.242Z,10.78